Главная страница
METAR-TAF:

METAR-TAF

Аэропорты :

Шлeзвиг-Jagel, Германия

широта: 54-28N, долгота: 009-31E, высота над уровнем моря: 22 м

Текущие метеонаблюдения

Эта сводка был подготовлена 32 минут назад, в 06:20 UTC
Ветер 8 Узел от южный
Температура 1°C
Влажность 93%
Давление 1012 hPa
Видимость: 4900 м

METAR: ETNS 170620Z AUTO 17008KT 4900 // ////// 01/00 Q1012 ///

Время: 07:52 (06:52 UTC)


TAF: отсутствует

Метеонаблюдения и прогнозы для более 4000 аэропортов (сводки METAR и TAF).

Имеющиеся станции представлены на карте желтыми и красными точками.

Чтобы увидеть название станции, наведите на нее мышь.

Затем щелкните, чтобы увидеть метеонаблюдения и метеопрогнозы.

Управление картой: чтобы увеличить масштаб, щелкните зеленые кнопки с черным крестиком; чтобы уменьшить масштаб, щелкните зеленую кнопку с тире; для просмотра соседних карт щелкайте зеленые стрелки.


METAR-TAF: